createdAt,value
2023-05-24T00:00:08.492Z,5.800
2023-05-24T00:01:08.209Z,5.700
2023-05-24T00:02:07.903Z,5.800
2023-05-24T00:03:09.191Z,5.700
2023-05-24T00:04:08.574Z,6.600
2023-05-24T00:05:09.414Z,6.100
2023-05-24T00:06:08.105Z,6.100
2023-05-24T00:07:07.889Z,6.400
2023-05-24T00:08:08.466Z,6.500
2023-05-24T00:09:08.048Z,6.100
2023-05-24T00:10:07.709Z,6.000
2023-05-24T00:11:08.300Z,6.500
2023-05-24T00:12:08.039Z,6.300
2023-05-24T00:13:07.605Z,6.900
2023-05-24T00:14:08.200Z,6.700
2023-05-24T00:17:08.708Z,5.900
2023-05-24T00:18:08.556Z,6.200
2023-05-24T00:20:10.554Z,6.000
2023-05-24T00:21:08.422Z,6.600
2023-05-24T00:24:08.226Z,6.800
2023-05-24T00:25:07.851Z,6.200
2023-05-24T00:26:08.376Z,6.000
2023-05-24T00:27:07.959Z,6.800
2023-05-24T00:28:08.672Z,6.100
2023-05-24T00:29:08.238Z,6.200
2023-05-24T00:32:08.709Z,6.400
2023-05-24T00:33:08.158Z,6.600
2023-05-24T00:34:07.706Z,7.000
2023-05-24T00:35:08.436Z,6.600
2023-05-24T00:36:08.106Z,5.900
2023-05-24T00:37:07.694Z,6.800
2023-05-24T00:38:08.349Z,6.400
2023-05-24T00:39:08.163Z,6.300
2023-05-24T00:40:07.787Z,7.000
2023-05-24T00:41:08.368Z,6.600
2023-05-24T00:43:07.643Z,6.600
2023-05-24T00:44:08.329Z,7.000
2023-05-24T00:46:08.751Z,7.100
2023-05-24T00:47:08.451Z,6.900
2023-05-24T00:48:08.198Z,7.600
2023-05-24T00:49:08.030Z,6.500
2023-05-24T00:50:07.602Z,7.100
2023-05-24T00:51:07.769Z,6.600
2023-05-24T00:52:08.370Z,6.800
2023-05-24T00:53:07.943Z,7.600
2023-05-24T00:54:08.897Z,6.900
2023-05-24T00:55:08.533Z,6.900
2023-05-24T00:56:08.124Z,6.900
2023-05-24T00:57:07.798Z,7.200
2023-05-24T00:58:08.451Z,6.800
2023-05-24T00:59:08.142Z,7.400
2023-05-24T01:00:08.183Z,6.600
2023-05-24T01:01:07.933Z,7.200
2023-05-24T01:02:08.942Z,7.300
2023-05-24T01:03:08.516Z,6.600
2023-05-24T01:04:10.184Z,6.700
2023-05-24T01:05:07.711Z,7.300
2023-05-24T01:06:08.332Z,6.600
2023-05-24T01:07:07.864Z,7.200
2023-05-24T01:08:08.424Z,7.400
2023-05-24T01:09:08.174Z,7.300
2023-05-24T01:10:08.114Z,7.700
2023-05-24T01:11:07.725Z,7.300
2023-05-24T01:12:08.504Z,7.000
2023-05-24T01:13:08.080Z,6.900
2023-05-24T01:14:07.793Z,7.500
2023-05-24T01:15:08.391Z,6.800
2023-05-24T01:16:08.267Z,6.900
2023-05-24T01:17:08.015Z,7.500
2023-05-24T01:18:08.014Z,7.100
2023-05-24T01:20:08.522Z,7.000
2023-05-24T01:21:08.204Z,6.500
2023-05-24T01:22:07.806Z,7.500
2023-05-24T01:23:08.423Z,7.200
2023-05-24T01:24:08.075Z,7.700
2023-05-24T01:25:08.013Z,6.900
2023-05-24T01:26:07.619Z,7.000
2023-05-24T01:28:07.772Z,6.600
2023-05-24T01:29:08.423Z,7.100
2023-05-24T01:30:08.083Z,7.600
2023-05-24T01:31:07.961Z,7.500
2023-05-24T01:32:08.640Z,6.500
2023-05-24T01:33:08.634Z,6.800
2023-05-24T01:34:08.254Z,7.300
2023-05-24T01:35:07.777Z,7.800
2023-05-24T01:36:08.452Z,7.300
2023-05-24T01:37:07.984Z,7.000
2023-05-24T01:38:08.561Z,7.100
2023-05-24T01:39:08.173Z,7.400
2023-05-24T01:40:07.770Z,7.600
2023-05-24T01:41:08.444Z,6.800
2023-05-24T01:42:07.991Z,7.000
2023-05-24T01:43:08.581Z,6.800
2023-05-24T01:44:08.152Z,7.300
2023-05-24T01:45:07.705Z,7.300
2023-05-24T01:46:08.440Z,7.000
2023-05-24T01:47:08.306Z,6.800
2023-05-24T01:48:08.136Z,7.200
2023-05-24T01:49:07.737Z,7.900
2023-05-24T01:50:09.145Z,7.200
2023-05-24T01:51:07.712Z,8.200
2023-05-24T01:52:08.737Z,7.700
2023-05-24T01:53:08.419Z,7.400
2023-05-24T01:54:08.072Z,7.200
2023-05-24T01:55:07.764Z,8.500
2023-05-24T01:56:08.455Z,7.800
2023-05-24T01:57:08.033Z,7.000
2023-05-24T01:58:07.586Z,7.700
2023-05-24T01:59:08.189Z,8.100
2023-05-24T02:00:07.807Z,7.100
2023-05-24T02:01:08.718Z,7.900
2023-05-24T02:02:08.613Z,7.500
2023-05-24T02:03:08.860Z,7.400
2023-05-24T02:04:07.694Z,6.800
2023-05-24T02:05:08.375Z,7.800
2023-05-24T02:07:07.631Z,6.900
2023-05-24T02:08:08.234Z,7.500
2023-05-24T02:09:07.834Z,8.000
2023-05-24T02:10:08.667Z,7.800
2023-05-24T02:11:08.195Z,7.900
2023-05-24T02:12:07.821Z,7.500
2023-05-24T02:13:08.438Z,7.900
2023-05-24T02:14:08.064Z,7.000
2023-05-24T02:15:08.470Z,7.400
2023-05-24T02:16:08.079Z,7.100
2023-05-24T02:17:08.502Z,7.500
2023-05-24T02:18:08.609Z,7.400
2023-05-24T02:19:08.170Z,7.800
2023-05-24T02:20:08.163Z,8.000
2023-05-24T02:23:08.256Z,7.300
2023-05-24T02:24:07.868Z,7.500
2023-05-24T02:25:08.555Z,7.400
2023-05-24T02:26:08.169Z,7.600
2023-05-24T02:27:07.772Z,7.800
2023-05-24T02:28:08.377Z,7.900
2023-05-24T02:29:07.957Z,7.700
2023-05-24T02:30:07.896Z,7.400
2023-05-24T02:31:08.761Z,7.400
2023-05-24T02:32:08.384Z,7.500
2023-05-24T02:33:08.346Z,7.400
2023-05-24T02:34:08.395Z,8.200
2023-05-24T02:35:08.034Z,7.800
2023-05-24T02:36:07.649Z,8.100
2023-05-24T02:37:08.200Z,8.400
2023-05-24T02:38:07.814Z,7.400
2023-05-24T02:39:08.745Z,8.200
2023-05-24T02:40:08.379Z,7.900
2023-05-24T02:41:07.980Z,8.400
2023-05-24T02:42:07.596Z,8.000
2023-05-24T02:43:08.273Z,7.600
2023-05-24T02:44:07.872Z,8.000
2023-05-24T02:45:08.676Z,7.500
2023-05-24T02:46:08.433Z,8.000
2023-05-24T02:47:08.194Z,8.100
2023-05-24T02:48:08.040Z,7.900
2023-05-24T02:50:08.358Z,8.400
2023-05-24T02:51:08.095Z,8.300
2023-05-24T02:52:07.717Z,8.100
2023-05-24T02:53:08.349Z,7.600
2023-05-24T02:54:07.905Z,8.300
2023-05-24T02:55:08.592Z,8.700
2023-05-24T02:56:08.620Z,7.800
2023-05-24T02:57:08.185Z,7.900
2023-05-24T02:58:07.785Z,8.100
2023-05-24T02:59:08.357Z,7.400
2023-05-24T03:00:08.105Z,7.900
2023-05-24T03:01:07.742Z,7.500
2023-05-24T03:02:08.781Z,7.700
2023-05-24T03:03:09.303Z,7.400
2023-05-24T03:04:08.858Z,7.500
2023-05-24T03:05:08.577Z,7.400
2023-05-24T03:07:07.876Z,7.600
2023-05-24T03:08:08.414Z,8.300
2023-05-24T03:09:08.102Z,7.600
2023-05-24T03:10:07.804Z,8.200
2023-05-24T03:11:08.116Z,8.300
2023-05-24T03:12:07.810Z,8.300
2023-05-24T03:13:08.428Z,8.300
2023-05-24T03:14:08.084Z,8.300
2023-05-24T03:15:07.744Z,8.200
2023-05-24T03:16:08.574Z,8.200
2023-05-24T03:17:08.227Z,7.600
2023-05-24T03:18:08.059Z,7.800
2023-05-24T03:19:10.186Z,7.900
2023-05-24T03:21:08.070Z,8.200
2023-05-24T03:22:07.658Z,8.100
2023-05-24T03:23:08.243Z,8.000
2023-05-24T03:24:07.858Z,7.500
2023-05-24T03:25:08.448Z,8.500
2023-05-24T03:26:08.053Z,8.500
2023-05-24T03:27:07.708Z,7.800
2023-05-24T03:28:08.430Z,8.300
2023-05-24T03:29:08.024Z,7.900
2023-05-24T03:30:07.678Z,8.600
2023-05-24T03:31:08.533Z,8.600
2023-05-24T03:32:08.818Z,8.400
2023-05-24T03:33:08.584Z,7.800
2023-05-24T03:34:08.231Z,7.700
2023-05-24T03:37:08.232Z,7.900
2023-05-24T03:38:07.749Z,8.000
2023-05-24T03:39:08.417Z,8.300
2023-05-24T03:40:08.106Z,9.000
2023-05-24T03:41:07.740Z,8.300
2023-05-24T03:42:08.385Z,7.300
2023-05-24T03:43:09.923Z,7.800
2023-05-24T03:44:08.540Z,8.300
2023-05-24T03:46:07.896Z,7.900
2023-05-24T03:47:08.470Z,8.100
2023-05-24T03:49:07.864Z,8.200
2023-05-24T03:50:08.547Z,8.000
2023-05-24T03:51:08.113Z,8.400
2023-05-24T03:52:07.696Z,8.100
2023-05-24T03:53:08.326Z,8.500
2023-05-24T03:54:07.976Z,8.600
2023-05-24T03:55:08.666Z,8.200
2023-05-24T03:56:08.280Z,7.600
2023-05-24T03:57:07.847Z,8.000
2023-05-24T03:58:08.405Z,7.900
2023-05-24T03:59:08.038Z,8.400
2023-05-24T04:00:07.769Z,7.900
2023-05-24T04:01:08.445Z,7.600
2023-05-24T04:03:08.039Z,8.600
2023-05-24T04:04:08.407Z,8.300
2023-05-24T04:05:08.188Z,7.800
2023-05-24T04:07:08.392Z,8.000
2023-05-24T04:08:07.965Z,8.600
2023-05-24T04:09:07.747Z,8.000
2023-05-24T04:10:08.398Z,8.100
2023-05-24T04:11:08.015Z,8.600
2023-05-24T04:12:07.658Z,8.100
2023-05-24T04:13:08.277Z,7.700
2023-05-24T04:14:07.918Z,8.300
2023-05-24T04:15:08.622Z,8.500
2023-05-24T04:16:08.237Z,8.200
2023-05-24T04:17:08.401Z,8.100
2023-05-24T04:18:09.160Z,8.100
2023-05-24T04:19:08.226Z,8.200
2023-05-24T04:20:08.097Z,8.400
2023-05-24T04:22:08.456Z,8.500
2023-05-24T04:23:08.105Z,8.700
2023-05-24T04:24:07.769Z,7.700
2023-05-24T04:25:08.546Z,7.700
2023-05-24T04:26:08.324Z,7.400
2023-05-24T04:27:07.922Z,7.100
2023-05-24T04:28:08.488Z,8.200
2023-05-24T04:30:07.628Z,7.700
2023-05-24T04:31:08.512Z,7.300
2023-05-24T04:32:08.199Z,7.100
2023-05-24T04:33:08.066Z,8.100
2023-05-24T04:36:08.178Z,7.400
2023-05-24T04:37:07.809Z,7.300
2023-05-24T04:38:08.391Z,7.100
2023-05-24T04:39:08.013Z,8.000
2023-05-24T04:40:08.738Z,7.300
2023-05-24T04:41:08.384Z,6.900
2023-05-24T04:42:08.053Z,6.800
2023-05-24T04:43:07.624Z,6.900
2023-05-24T04:44:08.276Z,6.600
2023-05-24T04:45:07.813Z,7.100
2023-05-24T04:46:11.607Z,7.100
2023-05-24T04:47:08.445Z,6.700
2023-05-24T04:48:08.325Z,6.900
2023-05-24T04:49:08.000Z,6.500
2023-05-24T04:50:08.585Z,6.600
2023-05-24T04:51:08.147Z,6.800
2023-05-24T04:53:08.522Z,5.700
2023-05-24T04:54:08.092Z,5.900
2023-05-24T04:55:07.605Z,5.600
2023-05-24T04:56:08.240Z,5.500
2023-05-24T04:57:07.949Z,4.900
2023-05-24T04:58:09.354Z,5.400
2023-05-24T04:59:08.189Z,5.400
2023-05-24T05:00:07.767Z,5.700
2023-05-24T05:01:08.471Z,5.900
2023-05-24T05:02:08.434Z,5.100
2023-05-24T05:03:08.848Z,5.300
2023-05-24T05:04:09.431Z,5.200
2023-05-24T05:05:08.115Z,5.900
2023-05-24T05:06:07.733Z,5.900
2023-05-24T05:07:08.320Z,6.400
2023-05-24T05:08:07.863Z,6.200
2023-05-24T05:09:08.513Z,6.100
2023-05-24T05:10:08.123Z,6.000
2023-05-24T05:11:07.728Z,6.400
2023-05-24T05:12:08.356Z,6.500
2023-05-24T05:13:08.090Z,6.600
2023-05-24T05:14:07.598Z,6.700
2023-05-24T05:15:08.510Z,6.500
2023-05-24T05:16:08.330Z,6.800
2023-05-24T05:17:08.264Z,6.100
2023-05-24T05:18:08.553Z,6.000
2023-05-24T05:20:08.156Z,5.600
2023-05-24T05:21:07.737Z,5.000
2023-05-24T05:22:08.609Z,5.500
2023-05-24T05:23:08.243Z,5.300
2023-05-24T05:24:07.802Z,4.700
2023-05-24T05:25:08.415Z,5.200
2023-05-24T05:26:08.013Z,5.500
2023-05-24T05:27:08.727Z,5.200
2023-05-24T05:28:08.266Z,4.700
2023-05-24T05:29:07.876Z,4.300
2023-05-24T05:30:08.572Z,5.200
2023-05-24T05:31:08.180Z,5.300
2023-05-24T05:32:07.974Z,4.600
2023-05-24T05:33:08.317Z,5.200
2023-05-24T05:35:07.988Z,4.800
2023-05-24T05:36:08.615Z,4.700
2023-05-24T05:37:08.237Z,4.600
2023-05-24T05:38:07.931Z,4.100
2023-05-24T05:39:08.495Z,4.600
2023-05-24T05:40:08.131Z,4.700
2023-05-24T05:41:07.727Z,4.600
2023-05-24T05:42:08.345Z,4.200
2023-05-24T05:44:07.631Z,5.000
2023-05-24T05:45:08.273Z,4.600
2023-05-24T05:46:08.149Z,4.500
2023-05-24T05:47:08.220Z,4.200
2023-05-24T05:48:08.103Z,5.000
2023-05-24T05:49:07.759Z,4.500
2023-05-24T05:50:08.418Z,4.600
2023-05-24T05:51:08.084Z,4.500
2023-05-24T05:52:07.634Z,4.400
2023-05-24T05:53:08.265Z,4.300
2023-05-24T05:54:07.984Z,4.500
2023-05-24T05:55:08.610Z,4.900
2023-05-24T05:57:07.798Z,5.000
2023-05-24T05:58:08.472Z,4.500
2023-05-24T05:59:08.206Z,4.600
2023-05-24T06:00:07.984Z,4.700
2023-05-24T06:01:07.741Z,4.900
2023-05-24T06:02:08.704Z,4.800
2023-05-24T06:03:09.048Z,4.500
2023-05-24T06:04:08.864Z,4.700
2023-05-24T06:05:08.011Z,5.100
2023-05-24T06:06:07.631Z,4.600
2023-05-24T06:07:08.251Z,4.700
2023-05-24T06:08:07.808Z,4.500
2023-05-24T06:09:08.401Z,4.700
2023-05-24T06:10:07.971Z,5.200
2023-05-24T06:11:08.570Z,4.500
2023-05-24T06:12:08.255Z,4.800
2023-05-24T06:13:07.840Z,4.700
2023-05-24T06:14:08.424Z,4.600
2023-05-24T06:16:08.103Z,4.200
2023-05-24T06:17:11.416Z,4.500
2023-05-24T06:19:14.701Z,4.000
2023-05-24T06:21:07.887Z,4.600
2023-05-24T06:22:08.563Z,4.200
2023-05-24T06:23:08.098Z,4.300
2023-05-24T06:24:07.735Z,4.200
2023-05-24T06:25:08.341Z,4.400
2023-05-24T06:26:07.987Z,3.700
2023-05-24T06:27:10.701Z,4.400
2023-05-24T06:28:08.288Z,4.300
2023-05-24T06:30:09.191Z,4.600
2023-05-24T06:31:08.304Z,4.500
2023-05-24T06:32:08.476Z,4.200
2023-05-24T06:33:08.302Z,4.300
2023-05-24T06:34:13.050Z,4.700
2023-05-24T06:37:08.194Z,5.000
2023-05-24T06:38:07.816Z,5.100
2023-05-24T06:39:08.647Z,4.800
2023-05-24T06:40:08.314Z,4.700
2023-05-24T06:41:07.910Z,5.700
2023-05-24T06:42:08.622Z,6.500
2023-05-24T06:43:08.246Z,7.000
2023-05-24T06:44:07.823Z,6.600
2023-05-24T06:45:08.660Z,6.600
2023-05-24T06:46:08.306Z,6.900
2023-05-24T06:47:08.517Z,6.300
2023-05-24T06:48:08.147Z,6.000
2023-05-24T06:49:08.905Z,6.300
2023-05-24T06:50:07.745Z,6.100
2023-05-24T06:51:08.599Z,5.400
2023-05-24T06:52:08.255Z,6.600
2023-05-24T06:53:08.167Z,6.300
2023-05-24T06:54:07.736Z,6.200
2023-05-24T06:55:08.480Z,6.000
2023-05-24T06:56:08.126Z,6.400
2023-05-24T06:57:07.854Z,5.700
2023-05-24T06:58:08.478Z,5.700
2023-05-24T06:59:08.118Z,6.100
2023-05-24T07:00:07.775Z,6.100
2023-05-24T07:01:08.732Z,5.400
2023-05-24T07:02:12.052Z,6.200
2023-05-24T07:03:07.947Z,5.800
2023-05-24T07:04:07.995Z,6.500
2023-05-24T07:05:08.202Z,7.100
2023-05-24T07:06:08.305Z,6.700
2023-05-24T07:07:07.931Z,5.800
2023-05-24T07:08:08.525Z,5.300
2023-05-24T07:09:08.217Z,5.900
2023-05-24T07:10:07.925Z,5.600
2023-05-24T07:11:08.936Z,5.900
2023-05-24T07:12:11.817Z,5.100
2023-05-24T07:13:08.837Z,5.800
2023-05-24T07:15:07.993Z,4.700
2023-05-24T07:16:08.631Z,5.000
2023-05-24T07:17:08.845Z,5.300
2023-05-24T07:18:07.948Z,5.100
2023-05-24T07:19:11.134Z,5.000
2023-05-24T07:20:07.980Z,5.200
2023-05-24T07:22:08.396Z,4.700
2023-05-24T07:23:08.049Z,4.900
2023-05-24T07:24:07.715Z,4.400
2023-05-24T07:25:07.776Z,4.700
2023-05-24T07:26:08.384Z,4.500
2023-05-24T07:28:08.035Z,4.300
2023-05-24T07:29:07.662Z,4.300
2023-05-24T07:30:23.569Z,4.900
2023-05-24T07:31:07.771Z,4.700
2023-05-24T07:32:08.929Z,4.700
2023-05-24T07:33:09.747Z,5.000
2023-05-24T07:34:08.842Z,4.600
2023-05-24T07:35:08.475Z,5.100
2023-05-24T07:36:08.081Z,4.300
2023-05-24T07:38:08.304Z,4.300
2023-05-24T07:39:08.063Z,4.600
2023-05-24T07:40:07.644Z,4.500
2023-05-24T07:41:08.319Z,4.700
2023-05-24T07:42:08.025Z,4.400
2023-05-24T07:43:09.739Z,4.600
2023-05-24T07:44:08.405Z,4.400
2023-05-24T07:46:07.985Z,4.400
2023-05-24T07:47:08.812Z,5.200
2023-05-24T07:48:09.421Z,4.200
2023-05-24T07:49:08.139Z,4.400
2023-05-24T07:50:07.729Z,4.500
2023-05-24T07:51:08.345Z,4.500
2023-05-24T07:52:08.131Z,4.700
2023-05-24T07:53:07.739Z,4.800
2023-05-24T07:54:08.409Z,5.000
2023-05-24T07:55:08.158Z,5.100
2023-05-24T07:56:07.807Z,4.900
2023-05-24T07:57:12.024Z,4.700
2023-05-24T07:58:08.503Z,5.400
2023-05-24T08:00:07.855Z,5.000
2023-05-24T08:01:08.540Z,5.100
2023-05-24T08:02:08.225Z,4.500
2023-05-24T08:03:08.280Z,4.900
2023-05-24T08:04:09.272Z,4.800
2023-05-24T08:05:07.894Z,4.900
2023-05-24T08:06:08.586Z,5.100
2023-05-24T08:07:11.111Z,4.700
2023-05-24T08:08:07.948Z,4.500
2023-05-24T08:09:07.879Z,4.800
2023-05-24T08:10:08.541Z,5.300
2023-05-24T08:11:08.206Z,4.600
2023-05-24T08:12:07.828Z,4.800
2023-05-24T08:13:08.811Z,4.800
2023-05-24T08:14:08.509Z,4.900
2023-05-24T08:15:08.149Z,4.800
2023-05-24T08:16:08.069Z,5.000
2023-05-24T08:17:07.804Z,5.700
2023-05-24T08:18:08.996Z,4.700
2023-05-24T08:19:07.778Z,5.400
2023-05-24T08:20:08.813Z,4.900
2023-05-24T08:21:08.519Z,4.400
2023-05-24T08:23:08.045Z,4.800
2023-05-24T08:24:12.444Z,4.500
2023-05-24T08:26:07.817Z,4.500
2023-05-24T08:27:08.533Z,5.200
2023-05-24T08:28:08.607Z,5.000
2023-05-24T08:29:08.555Z,4.800
2023-05-24T08:30:09.252Z,4.800
2023-05-24T08:31:08.291Z,5.300
2023-05-24T08:32:09.765Z,5.200
2023-05-24T08:33:08.040Z,5.000
2023-05-24T08:34:07.715Z,4.800
2023-05-24T08:35:24.969Z,4.700
2023-05-24T08:37:08.119Z,4.600
2023-05-24T08:38:07.898Z,4.800
2023-05-24T08:39:08.559Z,5.200
2023-05-24T08:40:08.179Z,4.800
2023-05-24T08:41:07.815Z,4.500
2023-05-24T08:42:18.252Z,5.300
2023-05-24T08:43:07.808Z,4.800
2023-05-24T08:44:08.434Z,5.300
2023-05-24T08:45:08.064Z,5.600
2023-05-24T08:46:07.973Z,4.700
2023-05-24T08:47:07.664Z,4.900
2023-05-24T08:48:09.293Z,4.800
2023-05-24T08:49:08.686Z,4.800
2023-05-24T08:50:08.880Z,4.400
2023-05-24T08:51:08.578Z,4.700
2023-05-24T08:52:08.144Z,4.300
2023-05-24T08:54:08.509Z,4.900
2023-05-24T08:55:08.478Z,4.400
2023-05-24T08:56:08.135Z,4.500
2023-05-24T08:59:08.193Z,4.700
2023-05-24T09:00:08.077Z,5.200
2023-05-24T09:01:08.050Z,5.000
2023-05-24T09:02:08.597Z,4.800
2023-05-24T09:03:08.797Z,4.500
2023-05-24T09:04:09.219Z,4.900
2023-05-24T09:05:07.903Z,5.000
2023-05-24T09:06:08.577Z,4.400
2023-05-24T09:07:08.178Z,4.800
2023-05-24T09:08:07.740Z,4.800
2023-05-24T09:09:08.382Z,4.700
2023-05-24T09:10:08.087Z,4.500
2023-05-24T09:11:07.885Z,4.800
2023-05-24T09:12:08.569Z,4.400
2023-05-24T09:13:08.148Z,4.600
2023-05-24T09:14:07.933Z,4.700
2023-05-24T09:15:08.685Z,4.300
2023-05-24T09:16:09.098Z,4.400
2023-05-24T09:17:08.086Z,4.600
2023-05-24T09:18:08.007Z,4.300
2023-05-24T09:19:07.818Z,4.600
2023-05-24T09:20:09.167Z,4.400
2023-05-24T09:21:08.122Z,4.500
2023-05-24T09:22:07.762Z,4.000
2023-05-24T09:23:08.346Z,4.200
2023-05-24T09:24:07.955Z,4.300
2023-05-24T09:25:07.737Z,4.400
2023-05-24T09:26:08.419Z,4.800
2023-05-24T09:28:07.781Z,4.500
2023-05-24T09:29:08.491Z,4.100
2023-05-24T09:30:08.349Z,4.600
2023-05-24T09:31:12.667Z,4.300
2023-05-24T09:34:07.910Z,4.700
2023-05-24T09:35:08.705Z,4.200
2023-05-24T09:36:08.682Z,4.300
2023-05-24T09:37:08.322Z,4.300
2023-05-24T09:38:08.445Z,4.400
2023-05-24T09:39:08.103Z,4.500
2023-05-24T09:40:07.911Z,4.600
2023-05-24T09:41:08.656Z,4.500
2023-05-24T09:43:08.072Z,4.500
2023-05-24T09:44:07.684Z,4.800
2023-05-24T09:45:08.003Z,4.000
2023-05-24T09:46:08.695Z,4.800
2023-05-24T09:47:08.703Z,4.700
2023-05-24T09:48:08.957Z,4.500
2023-05-24T09:49:07.764Z,4.500
2023-05-24T09:50:08.524Z,4.300
2023-05-24T09:51:08.472Z,4.400
2023-05-24T09:52:08.889Z,4.600
2023-05-24T09:53:08.570Z,5.000
2023-05-24T09:54:08.878Z,4.600
2023-05-24T09:55:08.499Z,4.500
2023-05-24T09:56:08.109Z,4.700
2023-05-24T09:57:11.363Z,4.400
2023-05-24T09:58:07.940Z,4.500
2023-05-24T09:59:08.803Z,4.600
2023-05-24T10:00:09.135Z,4.400
2023-05-24T10:01:08.107Z,3.900
2023-05-24T10:02:08.154Z,5.400
2023-05-24T10:03:08.462Z,4.500
2023-05-24T10:04:13.451Z,4.300
2023-05-24T10:05:08.878Z,4.500
2023-05-24T10:07:08.141Z,4.300
2023-05-24T10:08:07.920Z,5.000
2023-05-24T10:09:08.598Z,4.000
2023-05-24T10:10:11.345Z,4.200
2023-05-24T10:12:08.715Z,4.600
2023-05-24T10:13:08.332Z,4.300
2023-05-24T10:14:07.937Z,4.400
2023-05-24T10:15:07.755Z,4.200
2023-05-24T10:16:08.440Z,4.300
2023-05-24T10:17:08.648Z,5.100
2023-05-24T10:18:12.137Z,4.300
2023-05-24T10:19:08.669Z,4.500
2023-05-24T10:20:08.695Z,3.700
2023-05-24T10:21:09.421Z,4.300
2023-05-24T10:22:08.236Z,4.200
2023-05-24T10:24:10.247Z,4.300
2023-05-24T10:25:08.097Z,4.300
2023-05-24T10:26:07.646Z,4.300
2023-05-24T10:27:08.693Z,4.300
2023-05-24T10:28:08.300Z,4.300
2023-05-24T10:29:08.074Z,4.500
2023-05-24T10:30:13.776Z,4.400
2023-05-24T10:32:08.147Z,4.400
2023-05-24T10:33:08.509Z,3.900
2023-05-24T10:34:18.048Z,4.100
2023-05-24T10:35:07.656Z,4.200
2023-05-24T10:36:12.059Z,4.100
2023-05-24T10:37:08.120Z,4.300
2023-05-24T10:38:07.817Z,4.100
2023-05-24T10:39:08.579Z,3.800
2023-05-24T10:40:08.612Z,3.800
2023-05-24T10:41:08.450Z,4.000
2023-05-24T10:42:12.161Z,4.300
2023-05-24T10:43:07.860Z,4.500
2023-05-24T10:44:18.285Z,5.000
2023-05-24T10:45:07.936Z,4.600
2023-05-24T10:46:08.897Z,4.700
2023-05-24T10:47:07.745Z,4.200
2023-05-24T10:48:08.870Z,4.100
2023-05-24T10:49:08.646Z,5.000
2023-05-24T10:51:08.113Z,4.600
2023-05-24T10:52:07.683Z,4.400
2023-05-24T10:53:08.378Z,3.900
2023-05-24T10:54:11.516Z,4.400
2023-05-24T10:55:13.781Z,4.500
2023-05-24T10:56:08.494Z,3.900
2023-05-24T10:57:08.057Z,4.300
2023-05-24T11:00:15.571Z,4.900
2023-05-24T11:01:08.310Z,3.700
2023-05-24T11:02:08.135Z,4.400
2023-05-24T11:03:08.400Z,3.900
2023-05-24T11:04:08.200Z,4.900
2023-05-24T11:05:08.585Z,4.100
2023-05-24T11:06:08.896Z,4.600
2023-05-24T11:07:08.602Z,4.000
2023-05-24T11:08:08.283Z,4.200
2023-05-24T11:10:07.792Z,3.900
2023-05-24T11:11:27.422Z,4.000
2023-05-24T11:12:08.701Z,4.200
2023-05-24T11:13:08.418Z,3.700
2023-05-24T11:14:08.075Z,4.000
2023-05-24T11:15:07.678Z,4.100
2023-05-24T11:16:08.742Z,4.300
2023-05-24T11:17:08.789Z,4.000
2023-05-24T11:18:08.939Z,4.200
2023-05-24T11:19:07.735Z,4.600
2023-05-24T11:20:08.624Z,4.400
2023-05-24T11:21:08.308Z,4.100
2023-05-24T11:22:08.016Z,4.400
2023-05-24T11:23:08.648Z,3.800
2023-05-24T11:24:08.590Z,4.300
2023-05-24T11:26:07.781Z,4.300
2023-05-24T11:27:08.348Z,4.200
2023-05-24T11:28:08.310Z,4.100
2023-05-24T11:29:11.280Z,4.000
2023-05-24T11:30:07.843Z,3.900
2023-05-24T11:31:08.629Z,4.100
2023-05-24T11:32:08.561Z,3.900
2023-05-24T11:33:08.857Z,4.400
2023-05-24T11:34:08.957Z,4.000
2023-05-24T11:35:08.703Z,4.200
2023-05-24T11:36:08.401Z,5.000
2023-05-24T11:37:08.070Z,4.500
2023-05-24T11:38:08.189Z,4.400
2023-05-24T11:39:07.718Z,4.100
2023-05-24T11:40:08.422Z,4.600
2023-05-24T11:42:07.867Z,4.400
2023-05-24T11:43:08.533Z,4.400
2023-05-24T11:44:08.091Z,4.100
2023-05-24T11:45:07.737Z,4.100
2023-05-24T11:46:08.869Z,4.000
2023-05-24T11:47:07.759Z,4.000
2023-05-24T11:48:08.874Z,4.400
2023-05-24T11:49:08.545Z,4.300
2023-05-24T11:50:08.222Z,4.300
2023-05-24T11:51:08.267Z,4.300
2023-05-24T11:52:07.881Z,3.700
2023-05-24T11:53:08.602Z,4.000
2023-05-24T11:54:08.228Z,4.000
2023-05-24T11:55:07.760Z,4.200
2023-05-24T11:56:08.528Z,4.100
2023-05-24T11:57:08.188Z,4.400
2023-05-24T11:58:07.831Z,4.200
2023-05-24T11:59:08.496Z,4.200
2023-05-24T12:00:08.176Z,4.700
2023-05-24T12:01:08.665Z,3.300
2023-05-24T12:02:08.777Z,3.300
2023-05-24T12:03:10.412Z,4.100
2023-05-24T12:04:09.281Z,4.600
2023-05-24T12:05:08.893Z,4.100
2023-05-24T12:06:08.554Z,3.700
2023-05-24T12:08:09.326Z,4.300
2023-05-24T12:09:07.727Z,4.200
2023-05-24T12:10:08.445Z,3.700
2023-05-24T12:11:08.124Z,4.100
2023-05-24T12:12:07.732Z,4.200
2023-05-24T12:13:08.547Z,4.400
2023-05-24T12:14:08.118Z,3.900
2023-05-24T12:15:07.706Z,4.100
2023-05-24T12:16:09.449Z,3.800
2023-05-24T12:17:08.172Z,4.400
2023-05-24T12:18:08.879Z,4.200
2023-05-24T12:19:32.265Z,4.000
2023-05-24T12:20:07.826Z,3.900
2023-05-24T12:21:10.402Z,3.400
2023-05-24T12:22:08.467Z,3.800
2023-05-24T12:23:08.154Z,3.900
2023-05-24T12:24:07.801Z,3.700
2023-05-24T12:25:08.406Z,3.600
2023-05-24T12:26:08.933Z,3.700
2023-05-24T12:28:08.517Z,3.400
2023-05-24T12:29:08.153Z,4.100
2023-05-24T12:30:07.709Z,3.300
2023-05-24T12:31:08.806Z,3.500
2023-05-24T12:32:08.625Z,3.500
2023-05-24T12:33:08.939Z,3.200
2023-05-24T12:34:08.600Z,3.000
2023-05-24T12:35:08.232Z,3.800
2023-05-24T12:37:07.622Z,3.700
2023-05-24T12:38:08.223Z,3.500
2023-05-24T12:39:07.852Z,3.900
2023-05-24T12:40:08.412Z,3.500
2023-05-24T12:41:19.436Z,3.500
2023-05-24T12:43:07.795Z,3.800
2023-05-24T12:44:08.459Z,3.600
2023-05-24T12:45:08.135Z,4.200
2023-05-24T12:46:07.851Z,3.700
2023-05-24T12:47:09.230Z,3.700
2023-05-24T12:48:08.834Z,3.700
2023-05-24T12:49:07.636Z,3.700
2023-05-24T12:50:08.264Z,4.000
2023-05-24T12:51:07.802Z,3.700
2023-05-24T12:52:09.654Z,3.800
2023-05-24T12:53:08.248Z,3.600
2023-05-24T12:54:07.855Z,3.800
2023-05-24T12:55:08.456Z,3.700
2023-05-24T12:56:08.215Z,3.400
2023-05-24T12:57:09.332Z,3.800
2023-05-24T12:58:07.952Z,3.900
2023-05-24T12:59:08.586Z,4.300
2023-05-24T13:00:08.253Z,4.000
2023-05-24T13:01:08.112Z,4.100
2023-05-24T13:02:07.819Z,3.600
2023-05-24T13:03:08.746Z,4.300
2023-05-24T13:04:08.407Z,3.800
2023-05-24T13:05:08.313Z,3.500
2023-05-24T13:07:08.081Z,3.800
2023-05-24T13:08:07.733Z,3.600
2023-05-24T13:09:08.365Z,3.200
2023-05-24T13:10:08.117Z,4.000
2023-05-24T13:11:07.760Z,4.300
2023-05-24T13:12:08.636Z,4.400
2023-05-24T13:13:08.288Z,3.900
2023-05-24T13:14:08.078Z,4.300
2023-05-24T13:16:08.450Z,3.400
2023-05-24T13:17:09.460Z,3.800
2023-05-24T13:18:08.647Z,4.000
2023-05-24T13:20:08.655Z,4.500
2023-05-24T13:22:09.240Z,3.900
2023-05-24T13:23:07.891Z,4.100
2023-05-24T13:24:08.623Z,4.200
2023-05-24T13:25:08.293Z,4.500
2023-05-24T13:26:07.999Z,3.900
2023-05-24T13:27:08.665Z,4.300
2023-05-24T13:28:08.367Z,4.300
2023-05-24T13:29:36.627Z,4.100
2023-05-24T13:31:08.214Z,4.000
2023-05-24T13:32:07.919Z,3.800
2023-05-24T13:33:09.090Z,3.600
2023-05-24T13:35:11.598Z,4.100
2023-05-24T13:37:07.917Z,3.800
2023-05-24T13:38:08.615Z,3.300
2023-05-24T13:39:20.920Z,4.300
2023-05-24T13:40:08.608Z,4.200
2023-05-24T13:41:08.226Z,4.200
2023-05-24T13:42:07.998Z,4.000
2023-05-24T13:43:07.738Z,3.900
2023-05-24T13:44:08.402Z,3.900
2023-05-24T13:45:08.051Z,4.000
2023-05-24T13:46:09.529Z,4.300
2023-05-24T13:47:08.766Z,4.300
2023-05-24T13:48:09.174Z,4.300
2023-05-24T13:49:08.058Z,4.200
2023-05-24T13:50:07.852Z,4.100
2023-05-24T13:51:08.490Z,4.700
2023-05-24T13:52:08.090Z,4.000
2023-05-24T13:53:08.626Z,4.300
2023-05-24T13:54:08.271Z,4.200
2023-05-24T13:55:07.971Z,4.600
2023-05-24T13:56:08.590Z,4.200
2023-05-24T13:57:08.175Z,4.200
2023-05-24T13:58:07.897Z,4.400
2023-05-24T13:59:08.614Z,4.500
2023-05-24T14:00:08.513Z,4.200
2023-05-24T14:01:08.185Z,4.500
2023-05-24T14:02:08.275Z,4.700
2023-05-24T14:03:08.452Z,4.300
2023-05-24T14:04:08.159Z,4.900
2023-05-24T14:05:27.388Z,4.200
2023-05-24T14:07:07.707Z,4.400
2023-05-24T14:08:08.560Z,5.700